createdAt,value
2022-08-09T00:00:24.832Z,18.60
2022-08-09T00:02:55.106Z,18.60
2022-08-09T00:06:19.426Z,18.50
2022-08-09T00:08:31.604Z,18.50
2022-08-09T00:11:05.648Z,18.50
2022-08-09T00:13:50.845Z,18.50
2022-08-09T00:16:26.378Z,18.50
2022-08-09T00:19:10.096Z,18.50
2022-08-09T00:21:56.332Z,18.50
2022-08-09T00:24:27.456Z,18.50
2022-08-09T00:26:57.646Z,18.40
2022-08-09T00:30:16.565Z,18.40
2022-08-09T00:32:26.845Z,18.40
2022-08-09T00:34:58.758Z,18.40
2022-08-09T00:37:30.207Z,18.40
2022-08-09T00:40:09.027Z,18.40
2022-08-09T00:44:16.063Z,18.30
2022-08-09T00:45:28.335Z,18.30
2022-08-09T00:47:56.594Z,18.30
2022-08-09T00:50:25.352Z,18.20
2022-08-09T00:52:55.781Z,18.20
2022-08-09T00:56:03.673Z,18.10
2022-08-09T00:58:14.647Z,18.10
2022-08-09T01:00:54.759Z,18.10
2022-08-09T01:03:40.917Z,18.10
2022-08-09T01:06:25.568Z,18.00
2022-08-09T01:09:13.143Z,18.00
2022-08-09T01:11:53.302Z,18.00
2022-08-09T01:14:32.896Z,17.90
2022-08-09T01:17:10.895Z,17.90
2022-08-09T01:19:57.067Z,17.90
2022-08-09T01:23:16.526Z,17.90
2022-08-09T01:26:12.903Z,17.90
2022-08-09T01:28:48.899Z,17.80
2022-08-09T01:31:23.382Z,17.80
2022-08-09T01:34:12.291Z,17.70
2022-08-09T01:36:44.597Z,17.70
2022-08-09T01:39:16.529Z,17.70
2022-08-09T01:41:59.909Z,17.70
2022-08-09T01:44:34.495Z,17.70
2022-08-09T01:47:05.346Z,17.70
2022-08-09T01:49:38.981Z,17.60
2022-08-09T01:52:11.644Z,17.60
2022-08-09T01:54:47.200Z,17.60
2022-08-09T01:57:20.499Z,17.50
2022-08-09T02:00:00.316Z,17.60
2022-08-09T02:02:41.589Z,17.60
2022-08-09T02:05:15.744Z,17.60
2022-08-09T02:08:35.078Z,17.60
2022-08-09T02:10:40.275Z,17.60
2022-08-09T02:13:12.764Z,17.60
2022-08-09T02:15:49.472Z,17.60
2022-08-09T02:18:23.666Z,17.60
2022-08-09T02:21:00.312Z,17.60
2022-08-09T02:23:39.730Z,17.50
2022-08-09T02:26:27.121Z,17.50
2022-08-09T02:29:00.113Z,17.50
2022-08-09T02:31:35.428Z,17.40
2022-08-09T02:34:13.583Z,17.30
2022-08-09T02:36:56.330Z,17.30
2022-08-09T02:39:39.694Z,17.20
2022-08-09T02:42:16.769Z,17.20
2022-08-09T02:44:49.318Z,17.20
2022-08-09T02:47:22.530Z,17.20
2022-08-09T02:50:01.586Z,17.20
2022-08-09T02:52:39.620Z,17.20
2022-08-09T02:55:20.832Z,17.20
2022-08-09T02:58:00.645Z,17.10
2022-08-09T03:00:57.912Z,17.10
2022-08-09T03:04:12.427Z,17.00
2022-08-09T03:06:19.743Z,17.00
2022-08-09T03:08:50.695Z,17.00
2022-08-09T03:11:29.749Z,17.00
2022-08-09T03:14:13.034Z,16.90
2022-08-09T03:16:47.404Z,16.90
2022-08-09T03:19:59.138Z,16.90
2022-08-09T03:22:12.165Z,16.80
2022-08-09T03:25:26.827Z,16.80
2022-08-09T03:27:45.457Z,16.80
2022-08-09T03:30:14.566Z,16.80
2022-08-09T03:32:59.628Z,16.80
2022-08-09T03:35:44.489Z,16.80
2022-08-09T03:38:28.803Z,16.80
2022-08-09T03:40:59.005Z,16.80
2022-08-09T03:43:32.213Z,16.80
2022-08-09T03:46:04.969Z,16.70
2022-08-09T03:48:53.980Z,16.80
2022-08-09T03:51:43.755Z,16.80
2022-08-09T03:54:15.726Z,16.80
2022-08-09T03:56:44.867Z,16.80
2022-08-09T03:59:20.925Z,16.80
2022-08-09T04:01:59.165Z,16.80
2022-08-09T04:04:32.548Z,16.70
2022-08-09T04:07:06.578Z,16.70
2022-08-09T04:09:47.459Z,16.80
2022-08-09T04:12:44.636Z,16.80
2022-08-09T04:15:29.670Z,16.80
2022-08-09T04:18:02.179Z,16.80
2022-08-09T04:20:30.740Z,16.80
2022-08-09T04:23:02.334Z,16.80
2022-08-09T04:25:31.014Z,16.80
2022-08-09T04:28:03.620Z,16.70
2022-08-09T04:30:32.264Z,16.70
2022-08-09T04:33:01.782Z,16.60
2022-08-09T04:35:32.958Z,16.60
2022-08-09T04:38:03.684Z,16.70
2022-08-09T04:40:46.406Z,16.70
2022-08-09T04:43:15.222Z,16.70
2022-08-09T04:45:53.753Z,16.70
2022-08-09T04:48:23.914Z,16.70
2022-08-09T04:51:01.855Z,16.70
2022-08-09T04:53:31.636Z,16.60
2022-08-09T04:56:00.575Z,16.60
2022-08-09T04:58:29.882Z,16.60
2022-08-09T05:01:00.429Z,16.60
2022-08-09T05:03:40.034Z,16.60
2022-08-09T05:06:11.922Z,16.60
2022-08-09T05:09:00.652Z,16.60
2022-08-09T05:11:35.588Z,16.60
2022-08-09T05:14:06.268Z,16.70
2022-08-09T05:16:58.367Z,16.70
2022-08-09T05:19:26.115Z,16.70
2022-08-09T05:22:00.170Z,16.70
2022-08-09T05:24:30.075Z,16.70
2022-08-09T05:26:58.474Z,16.70
2022-08-09T05:29:31.487Z,16.80
2022-08-09T05:32:03.769Z,16.80
2022-08-09T05:34:34.223Z,16.80
2022-08-09T05:37:07.347Z,16.90
2022-08-09T05:39:44.210Z,16.90
2022-08-09T05:42:17.552Z,16.90
2022-08-09T05:44:51.982Z,16.90
2022-08-09T05:47:21.410Z,17.00
2022-08-09T05:50:11.036Z,17.00
2022-08-09T05:52:38.714Z,17.10
2022-08-09T05:55:09.868Z,17.10
2022-08-09T05:57:57.020Z,17.10
2022-08-09T06:00:28.633Z,17.10
2022-08-09T06:02:58.096Z,17.20
2022-08-09T06:05:31.160Z,17.30
2022-08-09T06:08:19.394Z,17.30
2022-08-09T06:10:55.109Z,17.20
2022-08-09T06:13:23.768Z,17.30
2022-08-09T06:15:53.051Z,17.30
2022-08-09T06:18:25.007Z,17.40
2022-08-09T06:20:54.854Z,17.40
2022-08-09T06:23:58.890Z,17.50
2022-08-09T06:26:20.346Z,17.50
2022-08-09T06:28:50.076Z,17.60
2022-08-09T06:31:31.580Z,17.60
2022-08-09T06:34:08.236Z,17.60
2022-08-09T06:36:43.961Z,17.60
2022-08-09T06:39:12.744Z,17.70
2022-08-09T06:42:09.352Z,17.70
2022-08-09T06:44:30.664Z,17.80
2022-08-09T06:46:58.901Z,17.80
2022-08-09T06:49:44.762Z,17.90
2022-08-09T06:52:16.156Z,17.90
2022-08-09T06:54:44.574Z,18.00
2022-08-09T06:57:14.201Z,18.10
2022-08-09T07:00:56.499Z,18.10
2022-08-09T07:02:32.064Z,18.20
2022-08-09T07:05:01.051Z,18.30
2022-08-09T07:07:59.511Z,18.40
2022-08-09T07:10:29.648Z,18.40
2022-08-09T07:13:18.698Z,18.50
2022-08-09T07:16:36.331Z,18.60
2022-08-09T07:18:38.689Z,18.70
2022-08-09T07:21:07.742Z,18.80
2022-08-09T07:23:36.492Z,18.80
2022-08-09T07:26:24.789Z,19.00
2022-08-09T07:29:09.140Z,19.00
2022-08-09T07:31:45.321Z,19.00
2022-08-09T07:34:20.819Z,19.10
2022-08-09T07:36:49.852Z,19.10
2022-08-09T07:39:19.786Z,19.20
2022-08-09T07:41:49.253Z,19.20
2022-08-09T07:44:19.037Z,19.30
2022-08-09T07:46:58.502Z,19.40
2022-08-09T07:49:26.991Z,19.50
2022-08-09T07:52:03.715Z,19.50
2022-08-09T07:54:38.524Z,19.60
2022-08-09T07:57:11.675Z,19.60
2022-08-09T07:59:52.302Z,19.70
2022-08-09T08:02:29.829Z,19.80
2022-08-09T08:04:58.166Z,19.70
2022-08-09T08:08:44.047Z,19.90
2022-08-09T08:10:15.768Z,19.90
2022-08-09T08:12:46.900Z,20.00
2022-08-09T08:15:23.281Z,20.10
2022-08-09T08:17:58.044Z,20.10
2022-08-09T08:20:32.818Z,20.20
2022-08-09T08:23:16.146Z,20.20
2022-08-09T08:25:49.842Z,20.30
2022-08-09T08:28:31.974Z,20.40
2022-08-09T08:31:14.189Z,20.50
2022-08-09T08:33:52.867Z,20.60
2022-08-09T08:36:29.562Z,20.70
2022-08-09T08:39:00.329Z,20.80
2022-08-09T08:41:50.507Z,20.80
2022-08-09T08:44:27.074Z,20.90
2022-08-09T08:47:04.854Z,21.00
2022-08-09T08:49:47.719Z,21.10
2022-08-09T08:55:08.357Z,21.30
2022-08-09T08:57:37.508Z,21.50
2022-08-09T09:00:21.011Z,21.60
2022-08-09T09:03:11.812Z,21.80
2022-08-09T09:06:00.786Z,22.00
2022-08-09T09:08:37.716Z,22.30
2022-08-09T09:11:08.557Z,22.50
2022-08-09T09:13:54.836Z,22.80
2022-08-09T09:16:31.241Z,23.00
2022-08-09T09:22:07.728Z,23.60
2022-08-09T09:24:43.207Z,24.00
2022-08-09T09:28:03.035Z,24.50
2022-08-09T09:30:28.814Z,24.80
2022-08-09T09:33:15.957Z,25.20
2022-08-09T09:36:00.780Z,25.70
2022-08-09T09:38:46.800Z,26.10
2022-08-09T09:41:33.391Z,26.40
2022-08-09T09:44:27.564Z,26.80
2022-08-09T09:47:07.623Z,27.00
2022-08-09T09:50:07.593Z,27.20
2022-08-09T09:52:37.275Z,27.40
2022-08-09T09:55:24.425Z,27.70
2022-08-09T09:58:16.629Z,28.00
2022-08-09T10:00:53.661Z,28.30
2022-08-09T10:03:44.461Z,28.60
2022-08-09T10:06:14.649Z,28.70
2022-08-09T10:08:54.815Z,28.90
2022-08-09T10:11:59.979Z,29.10
2022-08-09T10:14:30.491Z,29.20
2022-08-09T10:17:24.045Z,29.40
2022-08-09T10:19:53.027Z,29.50
2022-08-09T10:22:33.645Z,29.70
2022-08-09T10:25:12.115Z,29.80
2022-08-09T10:27:45.476Z,30.00
2022-08-09T10:34:08.869Z,30.20
2022-08-09T10:36:09.522Z,30.30
2022-08-09T10:38:57.110Z,30.30
2022-08-09T10:41:31.221Z,30.00
2022-08-09T10:44:01.847Z,30.00
2022-08-09T10:46:57.566Z,30.20
2022-08-09T10:49:49.697Z,30.40
2022-08-09T10:52:47.745Z,30.50
2022-08-09T10:55:25.499Z,30.70
2022-08-09T10:58:00.353Z,30.50
2022-08-09T11:01:11.182Z,30.80
2022-08-09T11:03:49.600Z,31.00
2022-08-09T11:06:26.169Z,31.10
2022-08-09T11:08:59.610Z,31.10
2022-08-09T11:12:11.813Z,31.20
2022-08-09T11:14:44.757Z,31.00
2022-08-09T11:17:53.553Z,31.00
2022-08-09T11:20:49.710Z,31.00
2022-08-09T11:23:23.879Z,31.00
2022-08-09T11:25:54.868Z,31.10
2022-08-09T11:28:56.171Z,31.30
2022-08-09T11:31:52.883Z,31.50
2022-08-09T11:34:42.967Z,31.60
2022-08-09T11:37:25.384Z,31.70
2022-08-09T11:40:03.978Z,31.60
2022-08-09T11:42:43.527Z,31.70
2022-08-09T11:45:37.612Z,31.60
2022-08-09T11:48:26.621Z,31.50
2022-08-09T11:52:53.956Z,31.40
2022-08-09T11:54:13.800Z,31.50
2022-08-09T11:56:47.642Z,31.60
2022-08-09T11:59:30.539Z,31.70
2022-08-09T12:02:34.264Z,31.60
2022-08-09T12:04:54.711Z,31.70
2022-08-09T12:07:41.280Z,31.80
2022-08-09T12:10:38.030Z,31.80
2022-08-09T12:13:03.822Z,31.80
2022-08-09T12:15:52.584Z,31.80
2022-08-09T12:18:26.020Z,31.80
2022-08-09T12:21:02.765Z,31.90
2022-08-09T12:23:57.867Z,31.90
2022-08-09T12:26:25.568Z,31.90
2022-08-09T12:29:12.575Z,32.00
2022-08-09T12:31:58.943Z,32.00
2022-08-09T12:34:35.173Z,32.10
2022-08-09T12:37:21.781Z,31.80
2022-08-09T12:40:07.798Z,31.70
2022-08-09T12:42:37.357Z,31.60
2022-08-09T12:45:33.450Z,31.60
2022-08-09T12:47:55.409Z,31.60
2022-08-09T12:50:25.323Z,31.60
2022-08-09T12:53:09.161Z,31.60
2022-08-09T12:56:14.283Z,31.50
2022-08-09T12:58:31.727Z,31.50
2022-08-09T13:01:04.284Z,31.60
2022-08-09T13:03:57.269Z,31.60
2022-08-09T13:06:34.593Z,31.50
2022-08-09T13:09:08.525Z,31.40
2022-08-09T13:11:42.520Z,31.20
2022-08-09T13:14:41.144Z,31.10
2022-08-09T13:17:02.873Z,31.20
2022-08-09T13:20:10.124Z,31.10
2022-08-09T13:22:38.386Z,31.00
2022-08-09T13:25:14.717Z,31.00
2022-08-09T13:27:48.227Z,31.00
2022-08-09T13:30:48.882Z,31.00
2022-08-09T13:33:11.588Z,31.10
2022-08-09T13:36:38.919Z,31.10
2022-08-09T13:38:56.150Z,31.10
2022-08-09T13:41:58.821Z,31.10
2022-08-09T13:44:17.650Z,31.10
2022-08-09T13:47:29.827Z,31.00
2022-08-09T13:49:56.145Z,31.00
2022-08-09T13:52:26.490Z,30.90
2022-08-09T13:55:00.918Z,30.70
2022-08-09T13:57:39.384Z,30.50
2022-08-09T14:00:12.569Z,30.50
2022-08-09T14:03:02.789Z,30.40
2022-08-09T14:05:58.478Z,30.40
2022-08-09T14:08:26.873Z,30.50
2022-08-09T14:10:55.599Z,30.40
2022-08-09T14:13:27.861Z,30.40
2022-08-09T14:16:16.460Z,30.40
2022-08-09T14:18:49.285Z,30.40
2022-08-09T14:21:22.243Z,30.50
2022-08-09T14:23:54.919Z,30.50
2022-08-09T14:26:30.226Z,30.50
2022-08-09T14:30:18.477Z,30.40
2022-08-09T14:31:56.566Z,30.50
2022-08-09T14:34:27.191Z,30.40
2022-08-09T14:36:59.005Z,30.40
2022-08-09T14:39:47.173Z,30.30
2022-08-09T14:42:28.965Z,30.20
2022-08-09T14:46:54.122Z,30.10
2022-08-09T14:47:58.609Z,30.10
2022-08-09T14:50:32.488Z,30.10
2022-08-09T14:53:01.653Z,30.00
2022-08-09T14:55:32.565Z,29.90
2022-08-09T14:58:11.339Z,29.90
2022-08-09T15:00:51.181Z,29.80
2022-08-09T15:03:22.640Z,29.80
2022-08-09T15:05:58.146Z,29.70
2022-08-09T15:08:30.285Z,29.70
2022-08-09T15:11:00.627Z,29.70
2022-08-09T15:13:56.069Z,29.70
2022-08-09T15:16:30.368Z,29.70
2022-08-09T15:19:15.783Z,29.70
2022-08-09T15:21:54.650Z,29.70
2022-08-09T15:24:30.353Z,29.70
2022-08-09T15:26:59.519Z,29.70
2022-08-09T15:30:58.490Z,29.70
2022-08-09T15:32:28.852Z,29.60
2022-08-09T15:35:18.175Z,29.60
2022-08-09T15:37:56.943Z,29.50
2022-08-09T15:40:37.055Z,29.50
2022-08-09T15:43:05.823Z,29.40
2022-08-09T15:45:51.939Z,29.30
2022-08-09T15:48:28.821Z,29.30
2022-08-09T15:50:59.533Z,29.30
2022-08-09T15:54:05.213Z,29.20
2022-08-09T15:56:30.869Z,29.20
2022-08-09T15:59:00.236Z,29.10
2022-08-09T16:01:31.305Z,29.00
2022-08-09T16:04:05.646Z,29.00
2022-08-09T16:06:40.389Z,29.00
2022-08-09T16:09:13.306Z,28.90
2022-08-09T16:11:49.338Z,28.90
2022-08-09T16:14:24.157Z,28.80
2022-08-09T16:16:59.959Z,28.70
2022-08-09T16:19:29.858Z,28.60
2022-08-09T16:22:05.331Z,28.50
2022-08-09T16:24:34.402Z,28.40
2022-08-09T16:27:04.858Z,28.40
2022-08-09T16:29:37.722Z,28.20
2022-08-09T16:32:34.374Z,28.10
2022-08-09T16:35:05.759Z,28.00
2022-08-09T16:37:55.658Z,27.90
2022-08-09T16:40:40.038Z,27.80
2022-08-09T16:43:09.489Z,27.80
2022-08-09T16:45:43.877Z,27.70
2022-08-09T16:48:39.302Z,27.60
2022-08-09T16:51:08.362Z,27.60
2022-08-09T16:53:37.328Z,27.50
2022-08-09T16:56:10.003Z,27.50
2022-08-09T16:58:42.778Z,27.40
2022-08-09T17:01:19.359Z,27.30
2022-08-09T17:03:52.269Z,27.30
2022-08-09T17:06:31.991Z,27.20
2022-08-09T17:09:44.905Z,27.20
2022-08-09T17:11:52.807Z,27.10
2022-08-09T17:14:27.377Z,27.10
2022-08-09T17:16:59.871Z,27.00
2022-08-09T17:19:46.662Z,27.00
2022-08-09T17:22:24.832Z,26.90
2022-08-09T17:25:02.989Z,26.90
2022-08-09T17:27:33.845Z,26.80
2022-08-09T17:30:06.876Z,26.80
2022-08-09T17:32:44.369Z,26.70
2022-08-09T17:35:15.613Z,26.70
2022-08-09T17:38:14.613Z,26.60
2022-08-09T17:40:36.107Z,26.60
2022-08-09T17:43:32.289Z,26.50
2022-08-09T17:46:04.091Z,26.50
2022-08-09T17:48:38.771Z,26.50
2022-08-09T17:51:17.108Z,26.40
2022-08-09T17:53:53.042Z,26.40
2022-08-09T17:56:27.444Z,26.40
2022-08-09T17:58:59.661Z,26.30
2022-08-09T18:02:06.082Z,26.30
2022-08-09T18:04:24.513Z,26.20
2022-08-09T18:07:23.665Z,26.20
2022-08-09T18:10:05.008Z,26.10
2022-08-09T18:13:38.277Z,26.10
2022-08-09T18:15:50.390Z,26.00
2022-08-09T18:18:25.566Z,26.00
2022-08-09T18:21:19.231Z,25.90
2022-08-09T18:24:09.602Z,25.90
2022-08-09T18:26:34.885Z,25.90
2022-08-09T18:30:35.215Z,25.80
2022-08-09T18:31:56.613Z,25.70
2022-08-09T18:34:27.492Z,25.70
2022-08-09T18:36:57.600Z,25.60
2022-08-09T18:39:31.964Z,25.60
2022-08-09T18:42:08.163Z,25.50
2022-08-09T18:44:40.309Z,25.50
2022-08-09T18:47:17.535Z,25.40
2022-08-09T18:49:49.751Z,25.40
2022-08-09T18:52:24.791Z,25.40
2022-08-09T18:55:03.890Z,25.30
2022-08-09T18:57:43.255Z,25.20
2022-08-09T19:00:16.697Z,25.20
2022-08-09T19:02:51.184Z,25.10
2022-08-09T19:05:28.910Z,25.10
2022-08-09T19:08:10.568Z,25.00
2022-08-09T19:10:42.332Z,24.90
2022-08-09T19:13:20.911Z,24.80
2022-08-09T19:15:52.654Z,24.80
2022-08-09T19:18:34.165Z,24.70
2022-08-09T19:21:09.127Z,24.60
2022-08-09T19:24:36.193Z,24.50
2022-08-09T19:26:31.791Z,24.50
2022-08-09T19:29:09.709Z,24.40
2022-08-09T19:31:46.648Z,24.30
2022-08-09T19:34:22.739Z,24.30
2022-08-09T19:36:53.960Z,24.30
2022-08-09T19:39:29.257Z,24.30
2022-08-09T19:42:14.894Z,24.20
2022-08-09T19:44:49.357Z,24.10
2022-08-09T19:47:23.275Z,24.10
2022-08-09T19:50:05.136Z,24.10
2022-08-09T19:52:49.476Z,24.00
2022-08-09T19:55:25.762Z,24.00
2022-08-09T19:57:59.595Z,23.90
2022-08-09T20:00:29.361Z,23.80
2022-08-09T20:04:11.550Z,23.80
2022-08-09T20:05:50.633Z,23.80
2022-08-09T20:08:33.211Z,23.60
2022-08-09T20:11:04.416Z,23.60
2022-08-09T20:13:37.067Z,23.60
2022-08-09T20:16:38.492Z,23.50
2022-08-09T20:19:41.918Z,23.40
2022-08-09T20:21:56.040Z,23.40
2022-08-09T20:24:29.877Z,23.30
2022-08-09T20:27:08.085Z,23.20
2022-08-09T20:29:38.679Z,23.20
2022-08-09T20:32:29.207Z,23.10
2022-08-09T20:35:01.557Z,23.10
2022-08-09T20:38:08.700Z,23.10
2022-08-09T20:40:26.777Z,23.00
2022-08-09T20:42:59.809Z,23.00
2022-08-09T20:46:01.710Z,22.90
2022-08-09T20:48:31.889Z,22.90
2022-08-09T20:51:00.950Z,22.80
2022-08-09T20:53:36.565Z,22.80
2022-08-09T20:56:19.831Z,22.80
2022-08-09T20:58:54.307Z,22.70
2022-08-09T21:01:34.321Z,22.70
2022-08-09T21:05:54.481Z,22.70
2022-08-09T21:07:11.020Z,22.60
2022-08-09T21:09:55.460Z,22.60
2022-08-09T21:15:13.555Z,22.50
2022-08-09T21:18:11.415Z,22.50
2022-08-09T21:20:32.380Z,22.40
2022-08-09T21:23:01.350Z,22.40
2022-08-09T21:25:56.212Z,22.40
2022-08-09T21:28:34.360Z,22.40
2022-08-09T21:31:19.481Z,22.40
2022-08-09T21:33:56.739Z,22.30
2022-08-09T21:36:29.062Z,22.30
2022-08-09T21:38:59.653Z,22.30
2022-08-09T21:42:03.974Z,22.30
2022-08-09T21:44:33.956Z,22.30
2022-08-09T21:47:04.486Z,22.20
2022-08-09T21:49:39.553Z,22.20
2022-08-09T21:52:16.646Z,22.10
2022-08-09T21:54:51.096Z,22.10
2022-08-09T21:57:39.513Z,22.00
2022-08-09T22:00:25.320Z,22.00
2022-08-09T22:02:58.953Z,22.00
2022-08-09T22:05:36.121Z,21.90
2022-08-09T22:08:12.916Z,21.90
2022-08-09T22:11:48.809Z,21.90
2022-08-09T22:13:34.401Z,21.80
2022-08-09T22:16:07.184Z,21.80
2022-08-09T22:18:35.620Z,21.70
2022-08-09T22:21:09.375Z,21.70
2022-08-09T22:24:00.109Z,21.70
2022-08-09T22:26:34.846Z,21.70
2022-08-09T22:29:09.419Z,21.70
2022-08-09T22:31:44.047Z,21.60
2022-08-09T22:34:14.689Z,21.60
2022-08-09T22:36:46.354Z,21.60
2022-08-09T22:39:46.635Z,21.60
2022-08-09T22:42:21.379Z,21.60
2022-08-09T22:48:06.133Z,21.60
2022-08-09T22:48:15.098Z,21.50
2022-08-09T22:50:27.994Z,21.50
2022-08-09T22:52:58.370Z,21.50
2022-08-09T22:55:39.742Z,21.50
2022-08-09T22:58:20.394Z,21.40
2022-08-09T23:01:02.157Z,21.40
2022-08-09T23:04:03.356Z,21.40
2022-08-09T23:06:30.102Z,21.40
2022-08-09T23:09:05.462Z,21.40
2022-08-09T23:11:35.284Z,21.40
2022-08-09T23:14:09.115Z,21.40
2022-08-09T23:16:39.125Z,21.30
2022-08-09T23:19:07.624Z,21.30
2022-08-09T23:21:37.007Z,21.30
2022-08-09T23:24:07.603Z,21.40
2022-08-09T23:26:39.038Z,21.30
2022-08-09T23:29:08.362Z,21.30
2022-08-09T23:31:36.487Z,21.30
2022-08-09T23:34:05.306Z,21.30
2022-08-09T23:36:34.261Z,21.20
2022-08-09T23:39:02.900Z,21.20
2022-08-09T23:41:31.176Z,21.20
2022-08-09T23:44:02.363Z,21.20
2022-08-09T23:46:31.362Z,21.20
2022-08-09T23:49:00.034Z,21.20
2022-08-09T23:51:28.983Z,21.10
2022-08-09T23:54:03.251Z,21.10
2022-08-09T23:56:53.256Z,21.10
2022-08-09T23:59:22.308Z,21.10
